sensor_id;sensor_type;location;lat;lon;timestamp;temperature;humidity
69464;DHT22;56665;41.106;16.688;2023-07-31T00:00:07;28.17;74.15
69464;DHT22;56665;41.106;16.688;2023-07-31T00:03:12;28.08;74.26
69464;DHT22;56665;41.106;16.688;2023-07-31T00:06:16;28.05;74.50
69464;DHT22;56665;41.106;16.688;2023-07-31T00:09:20;28.01;74.47
69464;DHT22;56665;41.106;16.688;2023-07-31T00:12:24;27.98;74.55
69464;DHT22;56665;41.106;16.688;2023-07-31T00:15:27;27.94;74.32
69464;DHT22;56665;41.106;16.688;2023-07-31T00:18:31;27.92;74.41
69464;DHT22;56665;41.106;16.688;2023-07-31T00:21:36;27.94;74.44
69464;DHT22;56665;41.106;16.688;2023-07-31T00:24:40;27.91;74.63
69464;DHT22;56665;41.106;16.688;2023-07-31T00:27:43;27.84;74.57
69464;DHT22;56665;41.106;16.688;2023-07-31T00:30:49;27.84;74.32
69464;DHT22;56665;41.106;16.688;2023-07-31T00:33:52;27.78;74.32
69464;DHT22;56665;41.106;16.688;2023-07-31T00:36:56;27.71;74.30
69464;DHT22;56665;41.106;16.688;2023-07-31T00:40:00;27.69;74.27
69464;DHT22;56665;41.106;16.688;2023-07-31T00:43:04;27.63;74.27
69464;DHT22;56665;41.106;16.688;2023-07-31T00:46:08;27.57;74.21
69464;DHT22;56665;41.106;16.688;2023-07-31T00:49:12;27.56;73.91
69464;DHT22;56665;41.106;16.688;2023-07-31T00:52:16;27.54;73.80
69464;DHT22;56665;41.106;16.688;2023-07-31T00:55:20;27.57;73.33
69464;DHT22;56665;41.106;16.688;2023-07-31T00:58:26;27.49;73.21
69464;DHT22;56665;41.106;16.688;2023-07-31T01:01:29;27.47;73.00
69464;DHT22;56665;41.106;16.688;2023-07-31T01:04:34;27.47;72.95
69464;DHT22;56665;41.106;16.688;2023-07-31T01:11:17;27.40;72.70
69464;DHT22;56665;41.106;16.688;2023-07-31T01:14:23;27.45;72.57
69464;DHT22;56665;41.106;16.688;2023-07-31T01:17:26;27.46;72.49
69464;DHT22;56665;41.106;16.688;2023-07-31T01:20:30;27.40;72.57
69464;DHT22;56665;41.106;16.688;2023-07-31T01:26:57;27.27;72.44
69464;DHT22;56665;41.106;16.688;2023-07-31T01:33:17;27.29;72.42
69464;DHT22;56665;41.106;16.688;2023-07-31T01:36:22;27.23;72.68
69464;DHT22;56665;41.106;16.688;2023-07-31T01:39:25;27.20;72.88
69464;DHT22;56665;41.106;16.688;2023-07-31T01:42:29;27.12;72.95
69464;DHT22;56665;41.106;16.688;2023-07-31T01:45:35;27.08;72.80
69464;DHT22;56665;41.106;16.688;2023-07-31T01:48:39;27.02;72.40
69464;DHT22;56665;41.106;16.688;2023-07-31T01:51:43;26.94;72.35
69464;DHT22;56665;41.106;16.688;2023-07-31T01:54:47;26.92;72.10
69464;DHT22;56665;41.106;16.688;2023-07-31T01:57:51;26.89;71.80
69464;DHT22;56665;41.106;16.688;2023-07-31T02:00:55;26.82;71.71
69464;DHT22;56665;41.106;16.688;2023-07-31T02:03:59;26.80;71.12
69464;DHT22;56665;41.106;16.688;2023-07-31T02:07:03;26.81;70.97
69464;DHT22;56665;41.106;16.688;2023-07-31T02:10:06;26.77;70.64
69464;DHT22;56665;41.106;16.688;2023-07-31T02:13:12;26.77;70.44
69464;DHT22;56665;41.106;16.688;2023-07-31T02:16:16;26.73;69.92
69464;DHT22;56665;41.106;16.688;2023-07-31T02:19:20;26.72;70.16
69464;DHT22;56665;41.106;16.688;2023-07-31T02:22:24;26.68;70.03
69464;DHT22;56665;41.106;16.688;2023-07-31T02:25:27;26.69;69.86
69464;DHT22;56665;41.106;16.688;2023-07-31T02:28:32;26.65;70.04
69464;DHT22;56665;41.106;16.688;2023-07-31T02:31:36;26.64;69.65
69464;DHT22;56665;41.106;16.688;2023-07-31T02:34:40;26.64;69.20
69464;DHT22;56665;41.106;16.688;2023-07-31T02:37:44;26.62;68.75
69464;DHT22;56665;41.106;16.688;2023-07-31T02:40:48;26.61;68.43
69464;DHT22;56665;41.106;16.688;2023-07-31T02:43:51;26.57;68.53
69464;DHT22;56665;41.106;16.688;2023-07-31T02:46:55;26.57;68.27
69464;DHT22;56665;41.106;16.688;2023-07-31T02:49:59;26.61;67.97
69464;DHT22;56665;41.106;16.688;2023-07-31T02:53:03;26.62;67.86
69464;DHT22;56665;41.106;16.688;2023-07-31T02:56:08;26.64;67.59
69464;DHT22;56665;41.106;16.688;2023-07-31T02:59:11;26.64;67.63
69464;DHT22;56665;41.106;16.688;2023-07-31T03:02:15;26.64;67.37
69464;DHT22;56665;41.106;16.688;2023-07-31T03:05:19;26.67;67.40
69464;DHT22;56665;41.106;16.688;2023-07-31T03:08:23;26.71;67.25
69464;DHT22;56665;41.106;16.688;2023-07-31T03:11:27;26.81;66.91
69464;DHT22;56665;41.106;16.688;2023-07-31T03:14:31;26.88;66.49
69464;DHT22;56665;41.106;16.688;2023-07-31T03:17:35;26.94;66.39
69464;DHT22;56665;41.106;16.688;2023-07-31T03:20:42;26.99;66.20
69464;DHT22;56665;41.106;16.688;2023-07-31T03:23:47;27.02;66.06
69464;DHT22;56665;41.106;16.688;2023-07-31T03:26:51;27.01;66.14
69464;DHT22;56665;41.106;16.688;2023-07-31T03:29:55;26.94;66.15
69464;DHT22;56665;41.106;16.688;2023-07-31T03:32:58;26.82;66.46
69464;DHT22;56665;41.106;16.688;2023-07-31T03:36:02;26.77;66.67
69464;DHT22;56665;41.106;16.688;2023-07-31T03:39:08;26.81;66.40
69464;DHT22;56665;41.106;16.688;2023-07-31T03:42:11;26.82;66.49
69464;DHT22;56665;41.106;16.688;2023-07-31T03:45:16;26.80;66.39
69464;DHT22;56665;41.106;16.688;2023-07-31T03:48:20;26.78;66.44
69464;DHT22;56665;41.106;16.688;2023-07-31T03:51:23;26.73;66.48
69464;DHT22;56665;41.106;16.688;2023-07-31T03:54:27;26.78;66.65
69464;DHT22;56665;41.106;16.688;2023-07-31T03:57:31;26.84;66.47
69464;DHT22;56665;41.106;16.688;2023-07-31T04:00:36;26.88;66.39
69464;DHT22;56665;41.106;16.688;2023-07-31T04:03:39;26.88;66.37
69464;DHT22;56665;41.106;16.688;2023-07-31T04:06:43;26.85;66.16
69464;DHT22;56665;41.106;16.688;2023-07-31T04:09:47;26.80;66.56
69464;DHT22;56665;41.106;16.688;2023-07-31T04:12:52;26.82;66.58
69464;DHT22;56665;41.106;16.688;2023-07-31T04:15:56;26.80;66.66
69464;DHT22;56665;41.106;16.688;2023-07-31T04:19:00;26.80;66.42
69464;DHT22;56665;41.106;16.688;2023-07-31T04:22:04;26.89;66.15
69464;DHT22;56665;41.106;16.688;2023-07-31T04:25:08;26.92;65.90
69464;DHT22;56665;41.106;16.688;2023-07-31T04:28:12;26.98;65.58
69464;DHT22;56665;41.106;16.688;2023-07-31T04:31:15;27.05;65.16
69464;DHT22;56665;41.106;16.688;2023-07-31T04:34:19;27.24;64.70
69464;DHT22;56665;41.106;16.688;2023-07-31T04:37:23;27.38;64.39
69464;DHT22;56665;41.106;16.688;2023-07-31T04:40:27;27.51;63.95
69464;DHT22;56665;41.106;16.688;2023-07-31T04:43:31;27.61;63.61
69464;DHT22;56665;41.106;16.688;2023-07-31T04:46:28;27.70;63.36
69464;DHT22;56665;41.106;16.688;2023-07-31T04:49:32;27.85;62.85
69464;DHT22;56665;41.106;16.688;2023-07-31T04:52:36;28.04;62.32
69464;DHT22;56665;41.106;16.688;2023-07-31T04:55:39;28.19;61.76
69464;DHT22;56665;41.106;16.688;2023-07-31T04:58:43;28.33;61.45
69464;DHT22;56665;41.106;16.688;2023-07-31T05:01:47;28.46;60.98
69464;DHT22;56665;41.106;16.688;2023-07-31T05:04:51;28.55;60.67
69464;DHT22;56665;41.106;16.688;2023-07-31T05:07:55;28.68;60.65
69464;DHT22;56665;41.106;16.688;2023-07-31T05:10:58;28.94;59.91
69464;DHT22;56665;41.106;16.688;2023-07-31T05:14:02;29.18;59.21
69464;DHT22;56665;41.106;16.688;2023-07-31T05:17:06;29.39;58.85
69464;DHT22;56665;41.106;16.688;2023-07-31T05:20:10;29.57;58.60
69464;DHT22;56665;41.106;16.688;2023-07-31T05:23:14;29.78;58.03
69464;DHT22;56665;41.106;16.688;2023-07-31T05:26:18;29.99;57.37
69464;DHT22;56665;41.106;16.688;2023-07-31T05:29:22;30.20;57.03
69464;DHT22;56665;41.106;16.688;2023-07-31T05:32:26;30.28;56.93
69464;DHT22;56665;41.106;16.688;2023-07-31T05:35:30;30.43;56.69
69464;DHT22;56665;41.106;16.688;2023-07-31T05:38:33;30.56;56.25
69464;DHT22;56665;41.106;16.688;2023-07-31T05:41:37;30.68;56.21
69464;DHT22;56665;41.106;16.688;2023-07-31T05:44:41;30.82;55.83
69464;DHT22;56665;41.106;16.688;2023-07-31T05:47:45;31.04;55.49
69464;DHT22;56665;41.106;16.688;2023-07-31T05:50:50;31.19;55.01
69464;DHT22;56665;41.106;16.688;2023-07-31T05:53:55;31.53;54.51
69464;DHT22;56665;41.106;16.688;2023-07-31T05:56:59;31.83;53.73
69464;DHT22;56665;41.106;16.688;2023-07-31T06:00:03;32.24;52.95
69464;DHT22;56665;41.106;16.688;2023-07-31T06:03:08;32.87;51.64
69464;DHT22;56665;41.106;16.688;2023-07-31T06:06:12;33.34;50.64
69464;DHT22;56665;41.106;16.688;2023-07-31T06:09:17;33.51;50.32
69464;DHT22;56665;41.106;16.688;2023-07-31T06:12:21;33.57;49.51
69464;DHT22;56665;41.106;16.688;2023-07-31T06:15:25;33.67;47.78
69464;DHT22;56665;41.106;16.688;2023-07-31T06:18:29;33.41;47.58
69464;DHT22;56665;41.106;16.688;2023-07-31T06:21:33;33.30;47.72
69464;DHT22;56665;41.106;16.688;2023-07-31T06:24:37;33.49;46.41
69464;DHT22;56665;41.106;16.688;2023-07-31T06:27:41;33.70;46.03
69464;DHT22;56665;41.106;16.688;2023-07-31T06:30:45;33.80;46.74
69464;DHT22;56665;41.106;16.688;2023-07-31T06:33:50;33.98;46.37
69464;DHT22;56665;41.106;16.688;2023-07-31T06:36:54;34.01;46.43
69464;DHT22;56665;41.106;16.688;2023-07-31T06:39:58;34.36;45.15
69464;DHT22;56665;41.106;16.688;2023-07-31T06:43:02;34.52;44.65
69464;DHT22;56665;41.106;16.688;2023-07-31T06:46:11;34.82;44.47
69464;DHT22;56665;41.106;16.688;2023-07-31T06:49:15;34.86;44.99
69464;DHT22;56665;41.106;16.688;2023-07-31T06:52:18;34.90;45.23
69464;DHT22;56665;41.106;16.688;2023-07-31T06:55:23;34.90;44.81
69464;DHT22;56665;41.106;16.688;2023-07-31T06:58:27;35.17;44.46
69464;DHT22;56665;41.106;16.688;2023-07-31T07:01:30;34.98;46.09
69464;DHT22;56665;41.106;16.688;2023-07-31T07:04:34;35.08;46.90
69464;DHT22;56665;41.106;16.688;2023-07-31T07:07:39;34.96;47.58
69464;DHT22;56665;41.106;16.688;2023-07-31T07:10:43;35.03;47.59
69464;DHT22;56665;41.106;16.688;2023-07-31T07:13:48;34.83;49.00
69464;DHT22;56665;41.106;16.688;2023-07-31T07:16:54;34.69;49.53
69464;DHT22;56665;41.106;16.688;2023-07-31T07:19:59;35.03;49.54
69464;DHT22;56665;41.106;16.688;2023-07-31T07:23:03;35.20;50.47
69464;DHT22;56665;41.106;16.688;2023-07-31T07:26:07;35.00;52.84
69464;DHT22;56665;41.106;16.688;2023-07-31T07:29:11;35.01;52.92
69464;DHT22;56665;41.106;16.688;2023-07-31T07:32:14;35.84;51.11
69464;DHT22;56665;41.106;16.688;2023-07-31T07:35:18;36.91;49.10
69464;DHT22;56665;41.106;16.688;2023-07-31T07:38:24;37.79;47.26
69464;DHT22;56665;41.106;16.688;2023-07-31T07:41:29;38.86;45.53
69464;DHT22;56665;41.106;16.688;2023-07-31T07:44:33;40.17;43.18
69464;DHT22;56665;41.106;16.688;2023-07-31T07:47:40;41.37;40.92
69464;DHT22;56665;41.106;16.688;2023-07-31T07:50:45;42.64;39.76
69464;DHT22;56665;41.106;16.688;2023-07-31T07:53:49;43.96;38.11
69464;DHT22;56665;41.106;16.688;2023-07-31T07:56:52;44.58;36.83
69464;DHT22;56665;41.106;16.688;2023-07-31T07:59:56;44.97;36.49
69464;DHT22;56665;41.106;16.688;2023-07-31T08:03:00;45.42;36.02
69464;DHT22;56665;41.106;16.688;2023-07-31T08:06:04;45.94;35.04
69464;DHT22;56665;41.106;16.688;2023-07-31T08:09:07;46.40;34.93
69464;DHT22;56665;41.106;16.688;2023-07-31T08:12:12;46.54;34.56
69464;DHT22;56665;41.106;16.688;2023-07-31T08:15:16;46.34;35.02
69464;DHT22;56665;41.106;16.688;2023-07-31T08:18:20;45.74;35.87
69464;DHT22;56665;41.106;16.688;2023-07-31T08:21:24;45.42;35.74
69464;DHT22;56665;41.106;16.688;2023-07-31T08:24:28;45.45;36.11
69464;DHT22;56665;41.106;16.688;2023-07-31T08:27:32;45.08;36.03
69464;DHT22;56665;41.106;16.688;2023-07-31T08:30:36;44.60;36.95
69464;DHT22;56665;41.106;16.688;2023-07-31T08:33:39;45.05;36.23
69464;DHT22;56665;41.106;16.688;2023-07-31T08:36:45;45.38;35.80
69464;DHT22;56665;41.106;16.688;2023-07-31T08:39:49;45.59;35.52
69464;DHT22;56665;41.106;16.688;2023-07-31T08:42:55;45.21;35.96
69464;DHT22;56665;41.106;16.688;2023-07-31T08:46:00;45.09;36.26
69464;DHT22;56665;41.106;16.688;2023-07-31T08:49:05;45.16;36.29
69464;DHT22;56665;41.106;16.688;2023-07-31T08:52:11;45.02;36.48
69464;DHT22;56665;41.106;16.688;2023-07-31T08:55:15;44.54;36.89
69464;DHT22;56665;41.106;16.688;2023-07-31T08:58:22;44.91;36.27
69464;DHT22;56665;41.106;16.688;2023-07-31T09:01:29;44.58;36.35
69464;DHT22;56665;41.106;16.688;2023-07-31T09:04:34;44.68;36.03
69464;DHT22;56665;41.106;16.688;2023-07-31T09:07:39;44.20;36.65
69464;DHT22;56665;41.106;16.688;2023-07-31T09:10:45;43.90;36.81
69464;DHT22;56665;41.106;16.688;2023-07-31T09:13:49;43.48;37.70
69464;DHT22;56665;41.106;16.688;2023-07-31T09:16:57;42.83;38.01
69464;DHT22;56665;41.106;16.688;2023-07-31T09:20:20;42.21;38.37
69464;DHT22;56665;41.106;16.688;2023-07-31T09:23:24;42.15;38.40
69464;DHT22;56665;41.106;16.688;2023-07-31T09:26:32;41.29;38.21
69464;DHT22;56665;41.106;16.688;2023-07-31T09:29:36;41.03;38.22
69464;DHT22;56665;41.106;16.688;2023-07-31T09:32:40;40.21;39.60
69464;DHT22;56665;41.106;16.688;2023-07-31T09:35:44;39.35;39.37
69464;DHT22;56665;41.106;16.688;2023-07-31T09:38:48;38.99;41.36
69464;DHT22;56665;41.106;16.688;2023-07-31T09:41:55;38.68;41.43
69464;DHT22;56665;41.106;16.688;2023-07-31T09:45:09;38.17;41.08
69464;DHT22;56665;41.106;16.688;2023-07-31T09:48:17;38.25;40.66
69464;DHT22;56665;41.106;16.688;2023-07-31T09:51:30;37.94;42.55
69464;DHT22;56665;41.106;16.688;2023-07-31T09:54:34;37.45;42.88
69464;DHT22;56665;41.106;16.688;2023-07-31T09:57:47;37.41;42.84
69464;DHT22;56665;41.106;16.688;2023-07-31T10:00:51;37.73;42.91
69464;DHT22;56665;41.106;16.688;2023-07-31T10:03:55;37.61;43.69
69464;DHT22;56665;41.106;16.688;2023-07-31T10:07:02;37.25;44.23
69464;DHT22;56665;41.106;16.688;2023-07-31T10:10:07;37.66;44.23
69464;DHT22;56665;41.106;16.688;2023-07-31T10:13:14;37.96;43.11
69464;DHT22;56665;41.106;16.688;2023-07-31T10:16:19;38.32;42.29
69464;DHT22;56665;41.106;16.688;2023-07-31T10:19:26;38.07;42.82
69464;DHT22;56665;41.106;16.688;2023-07-31T10:22:31;37.93;42.88
69464;DHT22;56665;41.106;16.688;2023-07-31T10:25:36;37.39;43.35
69464;DHT22;56665;41.106;16.688;2023-07-31T10:28:42;37.25;43.98
69464;DHT22;56665;41.106;16.688;2023-07-31T10:31:48;37.25;44.15
69464;DHT22;56665;41.106;16.688;2023-07-31T10:34:51;37.73;43.15
69464;DHT22;56665;41.106;16.688;2023-07-31T10:38:09;37.38;42.33
69464;DHT22;56665;41.106;16.688;2023-07-31T10:41:13;37.38;41.73
69464;DHT22;56665;41.106;16.688;2023-07-31T10:44:18;37.49;41.68
69464;DHT22;56665;41.106;16.688;2023-07-31T10:47:22;37.76;40.47
69464;DHT22;56665;41.106;16.688;2023-07-31T10:50:26;37.72;40.86
69464;DHT22;56665;41.106;16.688;2023-07-31T10:53:32;37.33;40.87
69464;DHT22;56665;41.106;16.688;2023-07-31T10:56:38;37.02;41.60
69464;DHT22;56665;41.106;16.688;2023-07-31T10:59:43;37.21;41.43
69464;DHT22;56665;41.106;16.688;2023-07-31T11:03:02;37.62;41.26
69464;DHT22;56665;41.106;16.688;2023-07-31T11:06:06;37.72;41.00
69464;DHT22;56665;41.106;16.688;2023-07-31T11:09:13;37.84;40.63
69464;DHT22;56665;41.106;16.688;2023-07-31T11:12:17;37.99;40.57
69464;DHT22;56665;41.106;16.688;2023-07-31T11:15:21;37.52;41.81
69464;DHT22;56665;41.106;16.688;2023-07-31T11:18:26;37.39;42.36
69464;DHT22;56665;41.106;16.688;2023-07-31T11:21:30;37.45;42.22
69464;DHT22;56665;41.106;16.688;2023-07-31T11:24:34;37.69;42.57
69464;DHT22;56665;41.106;16.688;2023-07-31T11:27:42;37.96;41.89
69464;DHT22;56665;41.106;16.688;2023-07-31T11:30:47;37.73;40.90
69464;DHT22;56665;41.106;16.688;2023-07-31T11:34:04;37.62;41.10
69464;DHT22;56665;41.106;16.688;2023-07-31T11:37:08;37.10;41.52
69464;DHT22;56665;41.106;16.688;2023-07-31T11:40:12;37.08;41.99
69464;DHT22;56665;41.106;16.688;2023-07-31T11:43:16;36.41;42.68
69464;DHT22;56665;41.106;16.688;2023-07-31T11:46:20;36.78;42.90
69464;DHT22;56665;41.106;16.688;2023-07-31T11:49:25;36.44;43.31
69464;DHT22;56665;41.106;16.688;2023-07-31T11:52:37;36.54;43.66
69464;DHT22;56665;41.106;16.688;2023-07-31T11:55:42;36.96;42.75
69464;DHT22;56665;41.106;16.688;2023-07-31T11:58:53;36.92;42.02
69464;DHT22;56665;41.106;16.688;2023-07-31T12:01:58;36.75;42.93
69464;DHT22;56665;41.106;16.688;2023-07-31T12:05:02;36.83;43.75
69464;DHT22;56665;41.106;16.688;2023-07-31T12:08:11;36.96;43.84
69464;DHT22;56665;41.106;16.688;2023-07-31T12:11:16;36.57;44.43
69464;DHT22;56665;41.106;16.688;2023-07-31T12:14:24;36.27;43.41
69464;DHT22;56665;41.106;16.688;2023-07-31T12:17:28;36.22;44.68
69464;DHT22;56665;41.106;16.688;2023-07-31T12:20:32;36.19;43.72
69464;DHT22;56665;41.106;16.688;2023-07-31T12:23:37;36.51;43.85
69464;DHT22;56665;41.106;16.688;2023-07-31T12:26:45;36.71;43.72
69464;DHT22;56665;41.106;16.688;2023-07-31T12:29:53;36.16;44.84
69464;DHT22;56665;41.106;16.688;2023-07-31T12:32:56;35.99;44.66
69464;DHT22;56665;41.106;16.688;2023-07-31T12:36:04;36.26;44.44
69464;DHT22;56665;41.106;16.688;2023-07-31T12:39:09;36.12;45.86
69464;DHT22;56665;41.106;16.688;2023-07-31T12:42:13;36.05;42.49
69464;DHT22;56665;41.106;16.688;2023-07-31T12:45:16;36.47;44.25
69464;DHT22;56665;41.106;16.688;2023-07-31T12:48:20;36.13;45.88
69464;DHT22;56665;41.106;16.688;2023-07-31T12:51:24;36.06;44.99
69464;DHT22;56665;41.106;16.688;2023-07-31T12:54:28;35.71;44.86
69464;DHT22;56665;41.106;16.688;2023-07-31T12:57:32;35.34;47.52
69464;DHT22;56665;41.106;16.688;2023-07-31T13:00:36;35.39;45.21
69464;DHT22;56665;41.106;16.688;2023-07-31T13:03:40;35.57;45.10
69464;DHT22;56665;41.106;16.688;2023-07-31T13:06:44;35.57;45.91
69464;DHT22;56665;41.106;16.688;2023-07-31T13:09:49;35.55;46.07
69464;DHT22;56665;41.106;16.688;2023-07-31T13:12:53;35.49;46.36
69464;DHT22;56665;41.106;16.688;2023-07-31T13:15:57;35.52;46.84
69464;DHT22;56665;41.106;16.688;2023-07-31T13:19:01;35.95;46.30
69464;DHT22;56665;41.106;16.688;2023-07-31T13:22:05;36.64;45.45
69464;DHT22;56665;41.106;16.688;2023-07-31T13:25:09;36.32;46.00
69464;DHT22;56665;41.106;16.688;2023-07-31T13:28:12;36.50;45.36
69464;DHT22;56665;41.106;16.688;2023-07-31T13:31:18;36.17;45.32
69464;DHT22;56665;41.106;16.688;2023-07-31T13:34:22;35.71;45.91
69464;DHT22;56665;41.106;16.688;2023-07-31T13:37:26;35.41;45.73
69464;DHT22;56665;41.106;16.688;2023-07-31T13:40:30;35.49;46.35
69464;DHT22;56665;41.106;16.688;2023-07-31T13:43:34;35.42;44.63
69464;DHT22;56665;41.106;16.688;2023-07-31T13:46:37;35.66;44.50
69464;DHT22;56665;41.106;16.688;2023-07-31T13:49:41;35.78;43.00
69464;DHT22;56665;41.106;16.688;2023-07-31T13:52:46;36.32;42.09
69464;DHT22;56665;41.106;16.688;2023-07-31T13:55:50;36.07;42.33
69464;DHT22;56665;41.106;16.688;2023-07-31T13:58:54;36.05;41.78
69464;DHT22;56665;41.106;16.688;2023-07-31T14:01:58;35.86;42.65
69464;DHT22;56665;41.106;16.688;2023-07-31T14:05:02;34.89;42.52
69464;DHT22;56665;41.106;16.688;2023-07-31T14:08:06;34.74;43.50
69464;DHT22;56665;41.106;16.688;2023-07-31T14:11:10;34.63;42.51
69464;DHT22;56665;41.106;16.688;2023-07-31T14:14:14;34.87;41.38
69464;DHT22;56665;41.106;16.688;2023-07-31T14:17:18;34.77;41.98
69464;DHT22;56665;41.106;16.688;2023-07-31T14:20:22;34.50;42.28
69464;DHT22;56665;41.106;16.688;2023-07-31T14:23:26;34.39;43.53
69464;DHT22;56665;41.106;16.688;2023-07-31T14:26:29;34.08;43.10
69464;DHT22;56665;41.106;16.688;2023-07-31T14:29:33;34.11;42.59
69464;DHT22;56665;41.106;16.688;2023-07-31T14:32:37;33.98;42.69
69464;DHT22;56665;41.106;16.688;2023-07-31T14:35:41;33.49;43.75
69464;DHT22;56665;41.106;16.688;2023-07-31T14:38:45;33.82;43.94
69464;DHT22;56665;41.106;16.688;2023-07-31T14:41:49;33.98;44.49
69464;DHT22;56665;41.106;16.688;2023-07-31T14:44:52;33.99;44.36
69464;DHT22;56665;41.106;16.688;2023-07-31T14:47:56;33.82;45.39
69464;DHT22;56665;41.106;16.688;2023-07-31T14:51:00;33.85;44.67
69464;DHT22;56665;41.106;16.688;2023-07-31T14:54:04;34.01;44.76
69464;DHT22;56665;41.106;16.688;2023-07-31T14:57:08;34.35;44.91
69464;DHT22;56665;41.106;16.688;2023-07-31T15:00:12;34.39;44.67
69464;DHT22;56665;41.106;16.688;2023-07-31T15:03:16;34.06;45.64
69464;DHT22;56665;41.106;16.688;2023-07-31T15:06:19;33.99;46.16
69464;DHT22;56665;41.106;16.688;2023-07-31T15:09:23;33.77;45.10
69464;DHT22;56665;41.106;16.688;2023-07-31T15:12:27;33.58;46.47
69464;DHT22;56665;41.106;16.688;2023-07-31T15:15:31;33.67;46.80
69464;DHT22;56665;41.106;16.688;2023-07-31T15:18:36;33.33;47.20
69464;DHT22;56665;41.106;16.688;2023-07-31T15:21:40;32.98;46.33
69464;DHT22;56665;41.106;16.688;2023-07-31T15:24:43;32.82;47.29
69464;DHT22;56665;41.106;16.688;2023-07-31T15:27:47;32.73;48.69
69464;DHT22;56665;41.106;16.688;2023-07-31T15:30:51;32.55;49.35
69464;DHT22;56665;41.106;16.688;2023-07-31T15:33:54;32.45;49.99
69464;DHT22;56665;41.106;16.688;2023-07-31T15:36:58;32.35;49.09
69464;DHT22;56665;41.106;16.688;2023-07-31T15:40:02;32.36;49.15
69464;DHT22;56665;41.106;16.688;2023-07-31T15:43:06;32.36;47.76
69464;DHT22;56665;41.106;16.688;2023-07-31T15:46:10;32.27;49.49
69464;DHT22;56665;41.106;16.688;2023-07-31T15:49:14;32.13;48.95
69464;DHT22;56665;41.106;16.688;2023-07-31T15:52:18;31.91;50.63
69464;DHT22;56665;41.106;16.688;2023-07-31T15:55:21;31.73;51.10
69464;DHT22;56665;41.106;16.688;2023-07-31T15:58:25;31.56;51.06
69464;DHT22;56665;41.106;16.688;2023-07-31T16:01:29;31.51;51.54
69464;DHT22;56665;41.106;16.688;2023-07-31T16:04:33;31.33;51.46
69464;DHT22;56665;41.106;16.688;2023-07-31T16:07:37;31.19;52.49
69464;DHT22;56665;41.106;16.688;2023-07-31T16:10:41;31.21;52.43
69464;DHT22;56665;41.106;16.688;2023-07-31T16:13:44;31.16;51.09
69464;DHT22;56665;41.106;16.688;2023-07-31T16:16:48;31.15;51.62
69464;DHT22;56665;41.106;16.688;2023-07-31T16:19:52;31.12;52.44
69464;DHT22;56665;41.106;16.688;2023-07-31T16:22:56;31.04;52.87
69464;DHT22;56665;41.106;16.688;2023-07-31T16:25:59;31.00;52.71
69464;DHT22;56665;41.106;16.688;2023-07-31T16:29:03;30.98;52.45
69464;DHT22;56665;41.106;16.688;2023-07-31T16:32:07;30.77;53.10
69464;DHT22;56665;41.106;16.688;2023-07-31T16:35:11;30.64;53.31
69464;DHT22;56665;41.106;16.688;2023-07-31T16:38:15;30.54;51.71
69464;DHT22;56665;41.106;16.688;2023-07-31T16:41:20;30.43;51.45
69464;DHT22;56665;41.106;16.688;2023-07-31T16:44:25;30.44;51.85
69464;DHT22;56665;41.106;16.688;2023-07-31T16:47:29;30.38;52.49
69464;DHT22;56665;41.106;16.688;2023-07-31T16:50:33;30.27;52.56
69464;DHT22;56665;41.106;16.688;2023-07-31T16:53:37;30.27;52.32
69464;DHT22;56665;41.106;16.688;2023-07-31T16:56:41;30.26;52.23
69464;DHT22;56665;41.106;16.688;2023-07-31T16:59:45;30.27;51.65
69464;DHT22;56665;41.106;16.688;2023-07-31T17:02:49;30.20;51.60
69464;DHT22;56665;41.106;16.688;2023-07-31T17:05:52;30.19;51.10
69464;DHT22;56665;41.106;16.688;2023-07-31T17:08:56;30.10;50.49
69464;DHT22;56665;41.106;16.688;2023-07-31T17:12:02;30.07;50.21
69464;DHT22;56665;41.106;16.688;2023-07-31T17:15:06;30.05;48.58
69464;DHT22;56665;41.106;16.688;2023-07-31T17:18:10;29.89;48.45
69464;DHT22;56665;41.106;16.688;2023-07-31T17:21:14;29.86;48.43
69464;DHT22;56665;41.106;16.688;2023-07-31T17:24:17;29.90;48.98
69464;DHT22;56665;41.106;16.688;2023-07-31T17:27:21;29.93;49.04
69464;DHT22;56665;41.106;16.688;2023-07-31T17:30:27;29.92;49.81
69464;DHT22;56665;41.106;16.688;2023-07-31T17:33:30;29.93;49.92
69464;DHT22;56665;41.106;16.688;2023-07-31T17:36:34;29.88;49.58
69464;DHT22;56665;41.106;16.688;2023-07-31T17:39:38;29.88;49.12
69464;DHT22;56665;41.106;16.688;2023-07-31T17:42:42;29.86;49.59
69464;DHT22;56665;41.106;16.688;2023-07-31T17:45:45;29.81;50.09
69464;DHT22;56665;41.106;16.688;2023-07-31T17:48:49;29.78;50.43
69464;DHT22;56665;41.106;16.688;2023-07-31T17:51:53;29.75;50.68
69464;DHT22;56665;41.106;16.688;2023-07-31T17:54:57;29.70;50.21
69464;DHT22;56665;41.106;16.688;2023-07-31T17:58:01;29.75;50.09
69464;DHT22;56665;41.106;16.688;2023-07-31T18:01:05;29.75;50.53
69464;DHT22;56665;41.106;16.688;2023-07-31T18:04:09;29.73;50.60
69464;DHT22;56665;41.106;16.688;2023-07-31T18:07:14;29.73;51.24
69464;DHT22;56665;41.106;16.688;2023-07-31T18:10:18;29.76;51.52
69464;DHT22;56665;41.106;16.688;2023-07-31T18:13:22;29.76;51.67
69464;DHT22;56665;41.106;16.688;2023-07-31T18:16:26;29.73;51.82
69464;DHT22;56665;41.106;16.688;2023-07-31T18:19:30;29.68;52.06
69464;DHT22;56665;41.106;16.688;2023-07-31T18:22:33;29.66;52.27
69464;DHT22;56665;41.106;16.688;2023-07-31T18:25:40;29.62;52.12
69464;DHT22;56665;41.106;16.688;2023-07-31T18:28:44;29.59;52.23
69464;DHT22;56665;41.106;16.688;2023-07-31T18:31:48;29.59;52.43
69464;DHT22;56665;41.106;16.688;2023-07-31T18:34:51;29.58;52.75
69464;DHT22;56665;41.106;16.688;2023-07-31T18:37:55;29.54;52.63
69464;DHT22;56665;41.106;16.688;2023-07-31T18:40:59;29.48;52.92
69464;DHT22;56665;41.106;16.688;2023-07-31T18:44:03;29.41;53.19
69464;DHT22;56665;41.106;16.688;2023-07-31T18:47:07;29.41;52.90
69464;DHT22;56665;41.106;16.688;2023-07-31T18:50:11;29.37;52.89
69464;DHT22;56665;41.106;16.688;2023-07-31T18:53:15;29.35;54.34
69464;DHT22;56665;41.106;16.688;2023-07-31T18:56:21;29.31;53.19
69464;DHT22;56665;41.106;16.688;2023-07-31T18:59:26;29.24;53.30
69464;DHT22;56665;41.106;16.688;2023-07-31T19:02:30;29.27;53.31
69464;DHT22;56665;41.106;16.688;2023-07-31T19:05:33;29.24;53.12
69464;DHT22;56665;41.106;16.688;2023-07-31T19:08:37;29.20;53.90
69464;DHT22;56665;41.106;16.688;2023-07-31T19:11:41;29.10;53.73
69464;DHT22;56665;41.106;16.688;2023-07-31T19:14:46;29.03;53.72